createdAt,value
2023-04-03T00:01:01.276Z,7.05
2023-04-03T00:03:30.815Z,8.35
2023-04-03T00:05:57.799Z,8.40
2023-04-03T00:08:24.605Z,10.68
2023-04-03T00:10:51.499Z,9.15
2023-04-03T00:13:18.773Z,12.23
2023-04-03T00:15:46.253Z,9.55
2023-04-03T00:18:13.051Z,9.82
2023-04-03T00:20:40.130Z,10.40
2023-04-03T00:23:06.942Z,11.05
2023-04-03T00:25:33.782Z,11.07
2023-04-03T00:28:01.689Z,9.23
2023-04-03T00:30:28.414Z,12.10
2023-04-03T00:32:55.389Z,10.80
2023-04-03T00:35:23.418Z,9.40
2023-04-03T00:37:53.702Z,11.20
2023-04-03T00:40:21.668Z,13.38
2023-04-03T00:42:52.349Z,9.55
2023-04-03T00:45:33.283Z,11.00
2023-04-03T00:48:02.248Z,9.93
2023-04-03T00:50:30.727Z,11.98
2023-04-03T00:52:58.680Z,11.30
2023-04-03T00:55:26.168Z,11.60
2023-04-03T00:57:53.728Z,10.15
2023-04-03T01:00:23.470Z,9.90
2023-04-03T01:02:52.208Z,9.07
2023-04-03T01:05:21.644Z,11.50
2023-04-03T01:07:49.899Z,10.25
2023-04-03T01:10:18.285Z,10.40
2023-04-03T01:12:47.261Z,10.77
2023-04-03T01:15:25.841Z,8.82
2023-04-03T01:17:57.597Z,9.77
2023-04-03T01:20:37.527Z,8.05
2023-04-03T01:23:13.464Z,9.15
2023-04-03T01:25:52.944Z,8.52
2023-04-03T01:28:21.517Z,12.43
2023-04-03T01:30:55.240Z,9.45
2023-04-03T01:33:22.045Z,15.88
2023-04-03T01:35:48.708Z,9.38
2023-04-03T01:38:16.052Z,11.23
2023-04-03T01:40:43.174Z,9.45
2023-04-03T01:43:09.836Z,10.48
2023-04-03T01:45:36.748Z,10.52
2023-04-03T01:48:04.236Z,11.80
2023-04-03T01:50:30.938Z,9.70
2023-04-03T01:52:57.576Z,10.40
2023-04-03T01:55:24.163Z,10.93
2023-04-03T01:57:50.918Z,10.27
2023-04-03T02:00:17.829Z,12.02
2023-04-03T02:02:44.385Z,10.90
2023-04-03T02:05:11.576Z,10.00
2023-04-03T02:07:38.152Z,8.80
2023-04-03T02:10:05.057Z,13.02
2023-04-03T02:12:31.682Z,9.70
2023-04-03T02:14:58.254Z,11.00
2023-04-03T02:17:24.968Z,12.30
2023-04-03T02:19:51.590Z,10.15
2023-04-03T02:22:18.376Z,9.02
2023-04-03T02:24:45.747Z,11.25
2023-04-03T02:27:12.423Z,7.38
2023-04-03T02:29:38.970Z,10.23
2023-04-03T02:32:06.386Z,7.43
2023-04-03T02:34:32.967Z,7.70
2023-04-03T02:36:59.732Z,7.35
2023-04-03T02:39:27.219Z,7.75
2023-04-03T02:41:53.778Z,7.00
2023-04-03T02:44:24.695Z,7.55
2023-04-03T02:46:51.286Z,9.52
2023-04-03T02:49:18.401Z,7.07
2023-04-03T02:51:45.180Z,6.47
2023-04-03T02:54:11.765Z,5.50
2023-04-03T02:56:38.342Z,5.78
2023-04-03T02:59:04.966Z,5.35
2023-04-03T03:01:33.511Z,5.60
2023-04-03T03:04:01.480Z,5.68
2023-04-03T03:06:28.421Z,5.07
2023-04-03T03:08:55.493Z,7.43
2023-04-03T03:11:22.136Z,5.78
2023-04-03T03:13:48.703Z,5.32
2023-04-03T03:16:15.554Z,5.78
2023-04-03T03:18:42.191Z,6.88
2023-04-03T03:21:10.848Z,5.72
2023-04-03T03:23:37.571Z,5.22
2023-04-03T03:26:07.129Z,5.18
2023-04-03T03:28:34.201Z,5.20
2023-04-03T03:31:01.538Z,6.28
2023-04-03T03:33:28.302Z,5.43
2023-04-03T03:35:55.142Z,5.63
2023-04-03T03:38:22.158Z,5.75
2023-04-03T03:40:49.764Z,6.63
2023-04-03T03:43:17.135Z,7.28
2023-04-03T03:45:43.888Z,7.28
2023-04-03T03:48:10.625Z,6.20
2023-04-03T03:50:37.192Z,5.53
2023-04-03T03:53:03.887Z,5.75
2023-04-03T03:55:33.309Z,5.20
2023-04-03T03:58:01.084Z,5.95
2023-04-03T04:00:28.509Z,6.63
2023-04-03T04:02:57.026Z,6.75
2023-04-03T04:05:25.266Z,6.55
2023-04-03T04:07:52.055Z,6.20
2023-04-03T04:10:18.779Z,5.28
2023-04-03T04:12:45.477Z,6.78
2023-04-03T04:15:12.192Z,6.57
2023-04-03T04:17:38.785Z,7.50
2023-04-03T04:20:06.191Z,7.57
2023-04-03T04:22:32.797Z,6.30
2023-04-03T04:24:59.457Z,6.85
2023-04-03T04:27:26.142Z,6.32
2023-04-03T04:29:52.718Z,6.63
2023-04-03T04:32:19.315Z,5.40
2023-04-03T04:34:46.015Z,5.20
2023-04-03T04:37:12.755Z,6.07
2023-04-03T04:39:39.307Z,7.47
2023-04-03T04:42:08.064Z,6.43
2023-04-03T04:44:34.657Z,7.75
2023-04-03T04:47:01.668Z,8.23
2023-04-03T04:49:28.458Z,6.50
2023-04-03T04:51:55.066Z,5.82
2023-04-03T04:54:21.950Z,7.25
2023-04-03T04:56:48.616Z,6.25
2023-04-03T04:59:15.203Z,6.47
2023-04-03T05:01:42.082Z,4.80
2023-04-03T05:04:08.997Z,5.85
2023-04-03T05:06:36.184Z,5.45
2023-04-03T05:09:03.337Z,6.05
2023-04-03T05:11:30.016Z,6.00
2023-04-03T05:13:56.676Z,6.80
2023-04-03T05:16:23.382Z,7.03
2023-04-03T05:18:49.949Z,6.18
2023-04-03T05:21:16.693Z,5.20
2023-04-03T05:23:43.642Z,8.80
2023-04-03T05:26:10.302Z,6.65
2023-04-03T05:28:37.535Z,6.68
2023-04-03T05:31:04.223Z,7.75
2023-04-03T05:33:34.882Z,8.15
2023-04-03T05:36:05.780Z,7.20
2023-04-03T05:38:32.866Z,6.95
2023-04-03T05:40:59.907Z,6.03
2023-04-03T05:43:26.560Z,5.50
2023-04-03T05:45:53.673Z,7.85
2023-04-03T05:48:20.392Z,8.98
2023-04-03T05:50:47.800Z,6.68
2023-04-03T05:53:22.113Z,5.97
2023-04-03T05:55:48.838Z,6.95
2023-04-03T05:58:15.500Z,7.55
2023-04-03T06:00:42.274Z,7.15
2023-04-03T06:03:09.083Z,6.85
2023-04-03T06:05:36.274Z,7.07
2023-04-03T06:08:04.235Z,7.43
2023-04-03T06:10:30.943Z,7.18
2023-04-03T06:12:57.896Z,6.60
2023-04-03T06:15:24.536Z,6.78
2023-04-03T06:17:51.485Z,6.10
2023-04-03T06:20:18.302Z,5.93
2023-04-03T06:22:44.961Z,7.28
2023-04-03T06:25:11.914Z,6.70
2023-04-03T06:27:38.990Z,7.60
2023-04-03T06:30:07.591Z,7.88
2023-04-03T06:32:34.592Z,7.28
2023-04-03T06:35:01.751Z,6.97
2023-04-03T06:37:29.921Z,7.75
2023-04-03T06:39:57.013Z,6.45
2023-04-03T06:42:24.426Z,5.88
2023-04-03T06:44:51.131Z,5.88
2023-04-03T06:47:18.700Z,5.65
2023-04-03T06:49:45.752Z,7.55
2023-04-03T06:52:13.243Z,6.57
2023-04-03T06:54:41.271Z,8.40
2023-04-03T06:57:08.450Z,7.15
2023-04-03T06:59:37.448Z,6.28
2023-04-03T07:02:07.812Z,6.95
2023-04-03T07:04:34.509Z,6.88
2023-04-03T07:07:01.498Z,7.10
2023-04-03T07:09:28.178Z,5.90
2023-04-03T07:11:54.811Z,7.43
2023-04-03T07:14:22.193Z,6.15
2023-04-03T07:16:48.889Z,6.13
2023-04-03T07:19:15.510Z,6.47
2023-04-03T07:21:42.997Z,7.32
2023-04-03T07:24:11.500Z,10.00
2023-04-03T07:26:42.118Z,7.22
2023-04-03T07:29:08.760Z,6.35
2023-04-03T07:31:35.791Z,6.00
2023-04-03T07:34:03.336Z,7.70
2023-04-03T07:36:30.382Z,6.05
2023-04-03T07:38:57.394Z,6.70
2023-04-03T07:41:24.191Z,5.75
2023-04-03T07:43:50.894Z,5.72
2023-04-03T07:46:18.461Z,8.55
2023-04-03T07:48:46.257Z,7.80
2023-04-03T07:51:13.991Z,6.03
2023-04-03T07:53:40.801Z,9.00
2023-04-03T07:56:08.126Z,5.95
2023-04-03T07:58:34.795Z,7.20
2023-04-03T08:01:01.518Z,9.50
2023-04-03T08:03:31.423Z,7.03
2023-04-03T08:06:05.134Z,5.53
2023-04-03T08:08:33.747Z,7.75
2023-04-03T08:11:03.409Z,6.43
2023-04-03T08:13:31.895Z,5.85
2023-04-03T08:16:00.145Z,6.80
2023-04-03T08:18:27.780Z,7.50
2023-04-03T08:20:54.448Z,7.25
2023-04-03T08:23:21.170Z,5.65
2023-04-03T08:25:47.972Z,7.72
2023-04-03T08:28:14.572Z,6.18
2023-04-03T08:30:42.168Z,6.68
2023-04-03T08:33:09.615Z,7.40
2023-04-03T08:35:41.730Z,5.95
2023-04-03T08:38:11.156Z,7.40
2023-04-03T08:40:37.933Z,7.53
2023-04-03T08:43:32.502Z,5.95
2023-04-03T08:48:36.577Z,6.35
2023-04-03T08:51:15.933Z,6.47
2023-04-03T08:53:57.644Z,5.70
2023-04-03T08:56:25.662Z,6.70
2023-04-03T08:58:58.154Z,6.57
2023-04-03T09:01:31.051Z,6.30
2023-04-03T09:03:57.792Z,6.77
2023-04-03T09:06:33.864Z,8.30
2023-04-03T09:09:41.900Z,7.03
2023-04-03T09:12:31.414Z,5.55
2023-04-03T09:15:12.247Z,18.52
2023-04-03T09:17:45.030Z,6.63
2023-04-03T09:20:27.938Z,7.45
2023-04-03T09:22:55.278Z,7.35
2023-04-03T09:25:28.267Z,6.30
2023-04-03T09:27:55.463Z,8.40
2023-04-03T09:30:26.734Z,6.78
2023-04-03T09:32:55.732Z,6.93
2023-04-03T09:35:32.935Z,6.65
2023-04-03T09:38:11.156Z,6.20
2023-04-03T09:40:45.622Z,7.38
2023-04-03T09:43:18.373Z,7.93
2023-04-03T09:45:46.873Z,6.63
2023-04-03T09:48:16.318Z,7.72
2023-04-03T09:50:56.476Z,6.88
2023-04-03T09:53:43.541Z,8.02
2023-04-03T09:56:23.834Z,5.78
2023-04-03T09:58:52.811Z,9.10
2023-04-03T10:01:22.543Z,7.07
2023-04-03T10:04:04.464Z,6.97
2023-04-03T10:06:34.353Z,5.75
2023-04-03T10:09:16.311Z,7.25
2023-04-03T10:11:58.112Z,6.70
2023-04-03T10:14:24.718Z,5.72
2023-04-03T10:17:02.214Z,6.50
2023-04-03T10:19:42.329Z,6.97
2023-04-03T10:22:15.575Z,8.88
2023-04-03T10:24:44.935Z,8.32
2023-04-03T10:27:33.287Z,7.45
2023-04-03T10:30:10.056Z,6.95
2023-04-03T10:32:40.383Z,7.45
2023-04-03T10:35:13.728Z,5.88
2023-04-03T10:37:46.617Z,5.72
2023-04-03T10:40:36.911Z,5.57
2023-04-03T10:43:15.889Z,5.55
2023-04-03T10:45:51.927Z,5.88
2023-04-03T10:48:40.372Z,6.40
2023-04-03T10:51:25.892Z,5.30
2023-04-03T10:54:14.157Z,6.30
2023-04-03T10:57:04.539Z,7.40
2023-04-03T11:00:19.534Z,6.15
2023-04-03T11:03:01.190Z,6.90
2023-04-03T11:05:37.838Z,6.63
2023-04-03T11:08:13.218Z,7.22
2023-04-03T11:10:46.118Z,7.00
2023-04-03T11:13:18.120Z,6.53
2023-04-03T11:15:48.462Z,5.45
2023-04-03T11:18:19.792Z,5.38
2023-04-03T11:20:58.817Z,6.47
2023-04-03T11:23:50.015Z,8.15
2023-04-03T11:26:19.889Z,6.38
2023-04-03T11:28:47.329Z,6.38
2023-04-03T11:31:32.935Z,6.50
2023-04-03T11:34:20.848Z,8.88
2023-04-03T11:36:51.348Z,5.65
2023-04-03T11:39:26.813Z,6.43
2023-04-03T11:42:06.882Z,6.63
2023-04-03T11:44:39.626Z,6.28
2023-04-03T11:47:09.256Z,7.63
2023-04-03T11:50:04.923Z,5.93
2023-04-03T11:52:43.731Z,7.50
2023-04-03T11:55:23.417Z,5.47
2023-04-03T11:57:59.289Z,7.78
2023-04-03T12:00:44.886Z,6.18
2023-04-03T12:03:27.588Z,5.03
2023-04-03T12:06:06.768Z,6.35
2023-04-03T12:08:46.148Z,8.80
2023-04-03T12:11:12.809Z,5.03
2023-04-03T12:13:39.407Z,6.90
2023-04-03T12:16:08.809Z,7.13
2023-04-03T12:18:54.929Z,5.97
2023-04-03T12:21:49.857Z,6.00
2023-04-03T12:24:16.971Z,5.38
2023-04-03T12:26:59.235Z,5.60
2023-04-03T12:29:35.130Z,6.07
2023-04-03T12:32:04.968Z,5.57
2023-04-03T12:35:10.548Z,5.40
2023-04-03T12:37:39.873Z,7.28
2023-04-03T12:40:09.297Z,6.72
2023-04-03T12:43:29.450Z,6.90
2023-04-03T12:46:17.131Z,6.68
2023-04-03T12:48:46.810Z,7.13
2023-04-03T12:51:23.505Z,5.78
2023-04-03T12:53:52.864Z,8.05
2023-04-03T12:56:22.020Z,5.55
2023-04-03T12:58:49.171Z,8.13
2023-04-03T13:01:19.349Z,8.27
2023-04-03T13:03:49.759Z,5.93
2023-04-03T13:06:24.742Z,7.72
2023-04-03T13:08:54.626Z,5.93
2023-04-03T13:11:22.980Z,7.18
2023-04-03T13:14:34.361Z,6.57
2023-04-03T13:17:04.933Z,7.82
2023-04-03T13:19:31.791Z,6.20
2023-04-03T13:22:16.848Z,6.00
2023-04-03T13:24:45.914Z,6.00
2023-04-03T13:27:13.863Z,5.95
2023-04-03T13:29:41.433Z,5.50
2023-04-03T13:32:16.265Z,4.03
2023-04-03T13:34:47.558Z,5.32
2023-04-03T13:37:54.530Z,4.47
2023-04-03T13:40:21.258Z,6.95
2023-04-03T13:43:03.475Z,5.25
2023-04-03T13:45:31.745Z,6.82
2023-04-03T13:48:23.904Z,5.07
2023-04-03T13:50:56.334Z,4.70
2023-04-03T13:53:23.471Z,5.65
2023-04-03T13:55:59.908Z,6.32
2023-04-03T13:58:28.765Z,9.18
2023-04-03T14:01:08.180Z,8.35
2023-04-03T14:03:44.452Z,5.88
2023-04-03T14:06:13.754Z,5.82
2023-04-03T14:08:43.828Z,5.43
2023-04-03T14:11:31.790Z,4.75
2023-04-03T14:14:03.146Z,4.75
2023-04-03T14:16:44.260Z,5.70
2023-04-03T14:19:19.873Z,9.48
2023-04-03T14:21:46.511Z,5.28
2023-04-03T14:24:13.391Z,5.70
2023-04-03T14:26:39.991Z,7.47
2023-04-03T14:29:07.217Z,6.18
2023-04-03T14:31:33.894Z,6.35
2023-04-03T14:34:00.528Z,5.07
2023-04-03T14:36:29.296Z,5.68
2023-04-03T14:38:57.304Z,5.28
2023-04-03T14:41:25.985Z,4.53
2023-04-03T14:43:53.217Z,6.45
2023-04-03T14:46:55.653Z,4.15
2023-04-03T14:49:29.135Z,3.80
2023-04-03T14:51:57.409Z,5.82
2023-04-03T14:54:29.135Z,6.47
2023-04-03T14:56:58.425Z,5.63
2023-04-03T14:59:26.180Z,5.07
2023-04-03T15:01:52.909Z,3.30
2023-04-03T15:04:21.834Z,5.10
2023-04-03T15:06:49.909Z,3.78
2023-04-03T15:09:25.526Z,6.05
2023-04-03T15:11:53.310Z,5.00
2023-04-03T15:14:30.017Z,3.70
2023-04-03T15:17:09.961Z,6.60
2023-04-03T15:19:39.953Z,6.50
2023-04-03T15:22:06.654Z,4.55
2023-04-03T15:24:33.351Z,4.95
2023-04-03T15:27:01.792Z,3.88
2023-04-03T15:29:28.962Z,5.10
2023-04-03T15:31:55.908Z,3.53
2023-04-03T15:34:23.076Z,6.03
2023-04-03T15:36:51.229Z,6.82
2023-04-03T15:39:17.985Z,4.18
2023-04-03T15:41:45.510Z,3.45
2023-04-03T15:44:13.250Z,4.53
2023-04-03T15:46:40.509Z,5.70
2023-04-03T15:49:07.263Z,4.55
2023-04-03T15:51:33.813Z,2.67
2023-04-03T15:54:00.522Z,4.15
2023-04-03T15:56:27.136Z,4.85
2023-04-03T15:58:53.784Z,3.13
2023-04-03T16:01:20.492Z,3.63
2023-04-03T16:03:47.988Z,4.20
2023-04-03T16:06:19.645Z,4.50
2023-04-03T16:08:48.434Z,3.78
2023-04-03T16:11:15.024Z,3.88
2023-04-03T16:13:41.761Z,4.07
2023-04-03T16:16:09.102Z,5.93
2023-04-03T16:18:36.971Z,3.75
2023-04-03T16:21:03.791Z,2.70
2023-04-03T16:23:30.397Z,4.05
2023-04-03T16:25:57.303Z,5.00
2023-04-03T16:28:23.973Z,2.90
2023-04-03T16:30:50.674Z,3.45
2023-04-03T16:33:17.470Z,4.55
2023-04-03T16:35:45.078Z,2.85
2023-04-03T16:38:11.821Z,4.03
2023-04-03T16:40:38.449Z,3.28
2023-04-03T16:43:05.084Z,3.67
2023-04-03T16:45:31.962Z,2.78
2023-04-03T16:47:58.716Z,4.50
2023-04-03T16:50:25.454Z,2.28
2023-04-03T16:52:52.205Z,3.70
2023-04-03T16:55:19.074Z,4.80
2023-04-03T16:57:45.699Z,3.00
2023-04-03T17:00:12.953Z,3.55
2023-04-03T17:02:40.520Z,3.30
2023-04-03T17:05:08.083Z,4.85
2023-04-03T17:07:34.784Z,3.25
2023-04-03T17:10:01.403Z,3.70
2023-04-03T17:12:28.031Z,8.02
2023-04-03T17:14:54.611Z,4.30
2023-04-03T17:17:24.337Z,5.20
2023-04-03T17:19:51.141Z,3.88
2023-04-03T17:22:18.189Z,2.72
2023-04-03T17:24:45.218Z,5.35
2023-04-03T17:27:11.819Z,2.22
2023-04-03T17:29:38.624Z,4.88
2023-04-03T17:32:05.668Z,3.75
2023-04-03T17:34:33.720Z,7.45
2023-04-03T17:37:00.456Z,3.45
2023-04-03T17:39:27.138Z,4.80
2023-04-03T17:41:55.171Z,3.30
2023-04-03T17:44:22.498Z,2.75
2023-04-03T17:46:49.389Z,6.93
2023-04-03T17:49:18.888Z,3.40
2023-04-03T17:51:45.668Z,4.68
2023-04-03T17:54:12.715Z,5.90
2023-04-03T17:56:39.547Z,8.13
2023-04-03T17:59:06.832Z,4.18
2023-04-03T18:01:36.017Z,4.43
2023-04-03T18:04:05.432Z,4.03
2023-04-03T18:06:38.739Z,3.83
2023-04-03T18:09:12.617Z,5.70
2023-04-03T18:11:39.448Z,6.03
2023-04-03T18:14:07.805Z,7.60
2023-04-03T18:16:34.965Z,5.78
2023-04-03T18:19:21.266Z,6.10
2023-04-03T18:21:48.473Z,5.43
2023-04-03T18:24:18.136Z,6.45
2023-04-03T18:26:51.730Z,4.15
2023-04-03T18:29:18.800Z,6.53
2023-04-03T18:31:49.594Z,4.65
2023-04-03T18:34:19.126Z,5.65
2023-04-03T18:36:46.738Z,5.80
2023-04-03T18:39:13.576Z,5.15
2023-04-03T18:41:40.751Z,3.60
2023-04-03T18:44:10.497Z,4.63
2023-04-03T18:49:05.378Z,4.75
2023-04-03T18:51:32.229Z,4.38
2023-04-03T18:53:58.795Z,3.83
2023-04-03T18:56:26.416Z,2.83
2023-04-03T18:58:53.134Z,6.50
2023-04-03T19:01:19.805Z,5.95
2023-04-03T19:03:46.585Z,3.95
2023-04-03T19:06:13.309Z,4.88
2023-04-03T19:08:42.947Z,4.80
2023-04-03T19:11:09.852Z,4.95
2023-04-03T19:13:38.928Z,3.95
2023-04-03T19:16:09.322Z,2.30
2023-04-03T19:18:36.008Z,3.97
2023-04-03T19:21:03.927Z,6.10
2023-04-03T19:23:30.724Z,4.35
2023-04-03T19:26:01.926Z,5.00
2023-04-03T19:28:28.913Z,4.10
2023-04-03T19:30:57.972Z,5.00
2023-04-03T19:33:25.483Z,5.60
2023-04-03T19:35:52.216Z,5.13
2023-04-03T19:38:18.902Z,3.38
2023-04-03T19:40:46.188Z,4.95
2023-04-03T19:43:14.378Z,4.63
2023-04-03T19:45:41.823Z,2.63
2023-04-03T19:48:08.796Z,4.43
2023-04-03T19:50:35.582Z,5.00
2023-04-03T19:53:02.358Z,3.95
2023-04-03T19:55:31.431Z,6.28
2023-04-03T19:58:02.468Z,3.85
2023-04-03T20:00:31.330Z,5.30
2023-04-03T20:02:58.287Z,4.13
2023-04-03T20:05:24.949Z,5.78
2023-04-03T20:07:51.766Z,3.90
2023-04-03T20:10:18.419Z,8.10
2023-04-03T20:12:45.772Z,7.40
2023-04-03T20:15:12.742Z,4.20
2023-04-03T20:17:39.884Z,5.63
2023-04-03T20:20:07.383Z,6.93
2023-04-03T20:22:36.359Z,4.68
2023-04-03T20:25:06.766Z,4.63
2023-04-03T20:27:34.670Z,3.50
2023-04-03T20:30:04.023Z,4.75
2023-04-03T20:32:31.369Z,5.53
2023-04-03T20:35:04.343Z,3.80
2023-04-03T20:37:31.895Z,5.38
2023-04-03T20:39:58.505Z,3.38
2023-04-03T20:42:26.126Z,4.97
2023-04-03T20:44:52.777Z,6.97
2023-04-03T20:47:19.630Z,4.50
2023-04-03T20:49:46.421Z,4.03
2023-04-03T20:52:12.983Z,6.80
2023-04-03T20:54:40.135Z,3.67
2023-04-03T20:57:06.862Z,3.50
2023-04-03T20:59:34.238Z,4.78
2023-04-03T21:02:01.371Z,3.83
2023-04-03T21:04:31.663Z,3.70
2023-04-03T21:07:38.862Z,5.35
2023-04-03T21:10:43.053Z,3.20
2023-04-03T21:13:47.137Z,4.00
2023-04-03T21:16:13.705Z,4.32
2023-04-03T21:18:59.462Z,5.40
2023-04-03T21:21:26.618Z,4.07
2023-04-03T21:23:55.515Z,4.70
2023-04-03T21:26:23.255Z,2.78
2023-04-03T21:28:54.020Z,5.25
2023-04-03T21:31:22.125Z,5.50
2023-04-03T21:33:49.257Z,3.75
2023-04-03T21:36:16.286Z,3.88
2023-04-03T21:38:45.080Z,4.43
2023-04-03T21:41:11.730Z,5.85
2023-04-03T21:43:38.450Z,3.58
2023-04-03T21:46:05.738Z,6.68
2023-04-03T21:48:32.558Z,5.40
2023-04-03T21:51:06.947Z,5.03
2023-04-03T21:53:34.448Z,3.65
2023-04-03T21:56:02.604Z,5.97
2023-04-03T21:58:33.472Z,3.60
2023-04-03T22:01:16.751Z,3.70
2023-04-03T22:03:44.733Z,4.43
2023-04-03T22:06:16.467Z,4.10
2023-04-03T22:08:43.932Z,5.32
2023-04-03T22:11:15.051Z,3.33
2023-04-03T22:13:42.729Z,4.53
2023-04-03T22:16:12.104Z,5.57
2023-04-03T22:18:39.090Z,4.40
2023-04-03T22:21:09.301Z,4.82
2023-04-03T22:23:36.039Z,5.07
2023-04-03T22:26:05.347Z,5.45
2023-04-03T22:28:34.000Z,4.45
2023-04-03T22:31:02.535Z,5.43
2023-04-03T22:33:29.788Z,6.47
2023-04-03T22:35:56.622Z,5.00
2023-04-03T22:38:24.270Z,6.82
2023-04-03T22:41:01.424Z,6.88
2023-04-03T22:43:29.184Z,4.95
2023-04-03T22:45:56.554Z,5.32
2023-04-03T22:48:24.285Z,6.53
2023-04-03T22:50:55.407Z,5.15
2023-04-03T22:53:22.173Z,5.45
2023-04-03T22:56:00.419Z,6.07
2023-04-03T22:58:28.856Z,6.80
2023-04-03T23:00:56.737Z,5.30
2023-04-03T23:03:24.515Z,4.22
2023-04-03T23:05:53.865Z,5.63
2023-04-03T23:08:21.067Z,4.50
2023-04-03T23:10:47.675Z,4.55
2023-04-03T23:13:14.247Z,5.18
2023-04-03T23:15:40.938Z,6.78
2023-04-03T23:18:07.723Z,3.97
2023-04-03T23:20:34.431Z,5.03
2023-04-03T23:23:01.039Z,5.05
2023-04-03T23:25:27.758Z,6.75
2023-04-03T23:27:54.641Z,5.07
2023-04-03T23:30:21.802Z,5.15
2023-04-03T23:32:48.540Z,5.50
2023-04-03T23:35:15.401Z,2.88
2023-04-03T23:37:42.724Z,6.25
2023-04-03T23:40:10.089Z,5.70
2023-04-03T23:42:36.793Z,4.88
2023-04-03T23:45:03.651Z,5.72
2023-04-03T23:47:30.296Z,4.20
2023-04-03T23:49:57.302Z,4.72
2023-04-03T23:52:23.876Z,5.80
2023-04-03T23:54:50.772Z,4.13
2023-04-03T23:57:17.354Z,6.75
2023-04-03T23:59:43.934Z,2.72
